Salinas, CA

1:48 PM PDT on August 29, 2014 (GMT -0700)
Salinas Municipal | Change Station
CLOSE
Current Station
Airport
Location: Salinas,
Elevation: 85 ft
Nearby Weather Stations

Elev 85 ft 36.66 °N, 121.61 °W | Updated 55 minutes ago

Clear
Clear
78 °F
Feels Like 78 °F
N
9
Wind Variable Wind from WSW

Today
High -- | Low -- °F
--% Chance of Precip.
Yesterday
High -- | Low -- °F
Precip. -- in
6:35 AM 7:38 PM
Waxing Crescent, 16% visible
Pressure 29.92 in
Visibility 10.0 miles
Clouds Clear
Dew Point 57 °F
Humidity 48%
Rainfall 0.00 in
Snow Depth Not available.
UV 10 out of 12
Pollen 7.40 out of 12
Air Quality Not available.
Flu Activity Not available.
METAR KSNS 291953Z 25008KT 10SM CLR 26/14 A2989 RMK AO2 SLP131 T02560139

More Conditions Fewer Conditions

Pressure 29.92 in
Visibility 10.0 miles
Clouds Clear
Dew Point 57 °F
Humidity 48%
Rainfall 0.00 in
Snow Depth Not available.
UV 10 out of 12
Pollen 7.40 out of 12
Air Quality Not available.
Flu Activity Not available.
METAR KSNS 291953Z 25008KT 10SM CLR 26/14 A2989 RMK AO2 SLP131 T02560139

More Conditions Fewer Conditions

10-Day Weather Forecast

Almanac

Astronomy

Aug. 29, 2014 Rise Set
Actual Time 6:35 AM PDT 7:38 PM PDT
Civil Twilight 6:08 AM PDT 8:05 PM PDT
Nautical Twilight 5:37 AM PDT 8:36 PM PDT
Astronomical Twilight 5:04 AM PDT 9:09 PM PDT
Moon 10:22 AM PDT 9:47 PM PDT
Length of Visible Light 13h 56m
Length of Day
13h 03m
Tomorrow will be 2m 13s shorter.
Waxing Crescent, 16% of the Moon is Illuminated
Today
Waxing Crescent
Sep 2
First Quarter
Sep 8
Full
Sep 15
Last Quarter
Sep 24
New

Today's Extremes

State Highs State Lows

Community

WunderPhotos

Upload Photos

1,748,345 photos uploaded!

Nearby

Snow Depth

Station Depth Elevation
Leavitt Meadows 0 in 7200 ft
Summit Meadow 0 in 9122 ft
CSS Lab 1 in 6900 ft
Adin Mountain 0 in 6200 ft
Cedar Pass 0 in 7100 ft

Earthquake Activity

City Distance Mag. Time & Date
Napa, California 115 miles 2.6 11:57 AM PDT
2014-08-27
Minimum magnitude displayed is 2.5.

Coastal Water Temperatures

Place Temperature
Monterey, CA 64.9 °F
Redwood City, CA 73.0 °F

Nearby Weather Stations